createdAt,value
2023-03-26T00:01:39.074Z,6.50
2023-03-26T00:04:07.899Z,5.40
2023-03-26T00:06:40.085Z,11.20
2023-03-26T00:09:10.368Z,7.00
2023-03-26T00:11:38.009Z,9.10
2023-03-26T00:14:05.717Z,7.50
2023-03-26T00:16:33.826Z,7.50
2023-03-26T00:19:02.684Z,6.70
2023-03-26T00:21:31.327Z,6.00
2023-03-26T00:24:04.432Z,10.30
2023-03-26T00:26:34.631Z,9.70
2023-03-26T00:29:03.643Z,5.50
2023-03-26T00:31:31.879Z,6.70
2023-03-26T00:34:03.216Z,5.20
2023-03-26T00:38:58.316Z,6.10
2023-03-26T00:41:27.002Z,6.30
2023-03-26T00:43:57.465Z,8.00
2023-03-26T00:46:27.857Z,10.10
2023-03-26T00:48:58.886Z,5.60
2023-03-26T00:51:28.568Z,6.70
2023-03-26T00:53:57.602Z,8.40
2023-03-26T00:56:25.514Z,5.50
2023-03-26T00:58:53.008Z,7.90
2023-03-26T01:01:30.397Z,7.20
2023-03-26T01:04:28.352Z,6.70
2023-03-26T01:06:58.605Z,7.00
2023-03-26T01:09:34.107Z,6.70
2023-03-26T01:12:06.675Z,6.60
2023-03-26T01:14:34.250Z,6.20
2023-03-26T01:17:06.104Z,5.90
2023-03-26T01:19:45.719Z,9.50
2023-03-26T01:22:22.641Z,6.20
2023-03-26T01:24:56.391Z,8.50
2023-03-26T01:27:48.944Z,10.80
2023-03-26T01:30:37.846Z,7.00
2023-03-26T01:33:14.566Z,8.30
2023-03-26T01:36:06.743Z,7.40
2023-03-26T01:38:46.809Z,11.90
2023-03-26T01:41:37.124Z,5.30
2023-03-26T01:44:14.546Z,9.40
2023-03-26T01:46:43.178Z,8.60
2023-03-26T01:49:13.254Z,10.20
2023-03-26T01:51:42.611Z,9.80
2023-03-26T01:54:20.003Z,12.00
2023-03-26T01:56:58.923Z,10.00
2023-03-26T02:00:15.424Z,9.60
2023-03-26T02:02:59.259Z,8.20
2023-03-26T02:05:37.901Z,6.90
2023-03-26T02:08:35.534Z,11.20
2023-03-26T02:11:13.657Z,9.80
2023-03-26T02:13:44.884Z,6.40
2023-03-26T02:16:16.598Z,13.10
2023-03-26T02:18:47.422Z,9.30
2023-03-26T02:21:21.613Z,8.30
2023-03-26T02:23:57.635Z,7.60
2023-03-26T02:26:25.568Z,11.60
2023-03-26T02:28:52.917Z,7.50
2023-03-26T02:31:21.789Z,9.00
2023-03-26T02:33:49.534Z,8.70
2023-03-26T02:36:18.513Z,8.80
2023-03-26T02:38:46.673Z,7.40
2023-03-26T02:41:14.152Z,7.60
2023-03-26T02:43:41.487Z,7.50
2023-03-26T02:46:09.078Z,11.00
2023-03-26T02:48:36.504Z,8.90
2023-03-26T02:51:06.711Z,4.80
2023-03-26T02:53:34.105Z,8.20
2023-03-26T02:56:01.484Z,11.40
2023-03-26T02:58:30.204Z,8.60
2023-03-26T03:00:57.861Z,9.90
2023-03-26T03:03:27.482Z,6.90
2023-03-26T03:05:55.968Z,8.00
2023-03-26T03:08:26.504Z,7.90
2023-03-26T03:11:07.641Z,6.60
2023-03-26T03:13:35.016Z,12.20
2023-03-26T03:16:02.474Z,6.00
2023-03-26T03:18:29.895Z,7.40
2023-03-26T03:20:57.263Z,10.30
2023-03-26T03:23:24.617Z,8.40
2023-03-26T03:25:52.731Z,7.60
2023-03-26T03:28:20.422Z,7.60
2023-03-26T03:30:49.030Z,9.00
2023-03-26T03:33:19.232Z,6.30
2023-03-26T03:35:49.563Z,8.80
2023-03-26T03:38:19.234Z,5.90
2023-03-26T03:40:46.697Z,6.10
2023-03-26T03:43:14.094Z,5.50
2023-03-26T03:45:41.466Z,7.10
2023-03-26T03:48:08.878Z,9.50
2023-03-26T03:50:36.558Z,7.00
2023-03-26T03:53:05.712Z,10.30
2023-03-26T03:55:33.172Z,6.50
2023-03-26T03:58:00.658Z,7.70
2023-03-26T04:00:28.072Z,5.30
2023-03-26T04:02:56.392Z,5.40
2023-03-26T04:05:23.876Z,4.00
2023-03-26T04:07:51.231Z,5.90
2023-03-26T04:10:18.805Z,3.70
2023-03-26T04:12:46.399Z,6.90
2023-03-26T04:15:13.911Z,4.10
2023-03-26T04:17:45.364Z,3.10
2023-03-26T04:22:44.248Z,2.50
2023-03-26T04:25:13.155Z,3.90
2023-03-26T04:27:43.423Z,4.40
2023-03-26T04:30:15.733Z,3.70
2023-03-26T04:32:44.735Z,3.40
2023-03-26T04:35:14.832Z,3.80
2023-03-26T04:37:44.495Z,2.70
2023-03-26T04:40:20.451Z,4.80
2023-03-26T04:42:48.274Z,2.90
2023-03-26T04:45:22.671Z,3.30
2023-03-26T04:47:51.085Z,5.40
2023-03-26T04:50:18.633Z,4.80
2023-03-26T04:52:46.290Z,3.10
2023-03-26T04:55:56.991Z,6.50
2023-03-26T04:58:30.212Z,4.00
2023-03-26T05:01:01.141Z,4.80
2023-03-26T05:03:40.674Z,3.30
2023-03-26T05:06:11.940Z,3.00
2023-03-26T05:08:39.301Z,7.30
2023-03-26T05:11:11.449Z,2.80
2023-03-26T05:13:42.749Z,3.80
2023-03-26T05:16:11.569Z,3.50
2023-03-26T05:18:39.520Z,4.20
2023-03-26T05:21:07.307Z,4.60
2023-03-26T05:23:34.644Z,3.70
2023-03-26T05:26:02.063Z,3.50
2023-03-26T05:28:29.367Z,3.40
2023-03-26T05:30:57.282Z,3.50
2023-03-26T05:33:24.928Z,6.00
2023-03-26T05:36:09.535Z,4.30
2023-03-26T05:38:37.104Z,3.50
2023-03-26T05:41:08.274Z,5.10
2023-03-26T05:43:36.323Z,4.70
2023-03-26T05:46:04.003Z,6.30
2023-03-26T05:48:31.579Z,4.10
2023-03-26T05:50:59.102Z,2.50
2023-03-26T05:53:27.646Z,8.10
2023-03-26T05:55:58.305Z,3.70
2023-03-26T05:58:31.574Z,8.20
2023-03-26T06:01:06.140Z,7.30
2023-03-26T06:03:34.051Z,4.10
2023-03-26T06:06:01.536Z,4.20
2023-03-26T06:08:29.471Z,5.30
2023-03-26T06:11:07.279Z,7.00
2023-03-26T06:13:34.685Z,8.30
2023-03-26T06:16:02.237Z,2.80
2023-03-26T06:18:29.791Z,6.40
2023-03-26T06:20:57.543Z,7.70
2023-03-26T06:23:25.289Z,4.50
2023-03-26T06:25:52.700Z,5.90
2023-03-26T06:28:20.229Z,6.80
2023-03-26T06:30:48.457Z,4.90
2023-03-26T06:33:16.531Z,5.40
2023-03-26T06:35:45.537Z,5.90
2023-03-26T06:38:13.141Z,6.50
2023-03-26T06:40:40.792Z,7.30
2023-03-26T06:43:10.834Z,7.10
2023-03-26T06:45:38.569Z,5.00
2023-03-26T06:48:06.415Z,7.20
2023-03-26T06:50:33.953Z,8.60
2023-03-26T06:53:01.360Z,11.30
2023-03-26T06:55:28.971Z,10.10
2023-03-26T06:57:58.196Z,7.10
2023-03-26T07:00:26.086Z,5.90
2023-03-26T07:02:53.614Z,8.80
2023-03-26T07:05:21.188Z,9.30
2023-03-26T07:07:50.437Z,9.00
2023-03-26T07:10:18.073Z,9.90
2023-03-26T07:12:45.959Z,9.20
2023-03-26T07:15:13.545Z,10.30
2023-03-26T07:17:41.156Z,10.70
2023-03-26T07:20:09.535Z,11.50
2023-03-26T07:22:37.629Z,6.40
2023-03-26T07:25:06.406Z,9.80
2023-03-26T07:28:06.560Z,9.10
2023-03-26T07:31:11.651Z,9.80
2023-03-26T07:33:57.269Z,8.90
2023-03-26T07:36:48.417Z,5.90
2023-03-26T07:39:41.156Z,9.10
2023-03-26T07:42:31.972Z,13.20
2023-03-26T07:45:14.585Z,8.90
2023-03-26T07:47:43.151Z,10.40
2023-03-26T07:50:21.603Z,13.10
2023-03-26T07:53:01.777Z,10.90
2023-03-26T07:55:29.642Z,12.80
2023-03-26T07:58:18.208Z,11.10
2023-03-26T08:00:53.742Z,8.80
2023-03-26T08:03:59.178Z,7.90
2023-03-26T08:07:03.687Z,8.80
2023-03-26T08:09:50.317Z,12.00
2023-03-26T08:13:02.467Z,8.40
2023-03-26T08:15:44.048Z,12.90
2023-03-26T08:18:41.562Z,11.80
2023-03-26T08:21:17.157Z,13.40
2023-03-26T08:24:11.027Z,9.40
2023-03-26T08:27:06.873Z,8.80
2023-03-26T08:29:58.126Z,11.80
2023-03-26T08:32:26.011Z,12.70
2023-03-26T08:34:53.498Z,12.70
2023-03-26T08:37:21.086Z,9.90
2023-03-26T08:39:48.448Z,13.00
2023-03-26T08:43:25.825Z,10.80
2023-03-26T08:46:35.930Z,12.40
2023-03-26T08:49:17.092Z,6.00
2023-03-26T08:52:15.384Z,10.10
2023-03-26T08:55:04.430Z,11.70
2023-03-26T08:57:55.504Z,9.00
2023-03-26T09:00:41.180Z,8.30
2023-03-26T09:03:20.418Z,9.70
2023-03-26T09:06:32.965Z,7.10
2023-03-26T09:09:31.288Z,9.20
2023-03-26T09:12:08.155Z,10.70
2023-03-26T09:15:13.767Z,6.60
2023-03-26T09:18:21.316Z,6.20
2023-03-26T09:21:06.578Z,7.40
2023-03-26T09:23:49.760Z,5.80
2023-03-26T09:26:51.510Z,12.40
2023-03-26T09:29:34.113Z,5.80
2023-03-26T09:32:38.187Z,6.70
2023-03-26T09:36:08.751Z,6.20
2023-03-26T09:38:57.640Z,4.90
2023-03-26T09:41:42.065Z,8.00
2023-03-26T09:44:47.986Z,3.40
2023-03-26T09:47:36.572Z,6.20
2023-03-26T09:50:16.130Z,7.10
2023-03-26T09:52:53.152Z,5.90
2023-03-26T09:55:39.381Z,6.40
2023-03-26T09:58:14.518Z,5.30
2023-03-26T10:01:01.086Z,9.20
2023-03-26T10:04:09.489Z,5.10
2023-03-26T10:06:47.285Z,5.80
2023-03-26T10:09:41.468Z,3.90
2023-03-26T10:12:44.286Z,5.70
2023-03-26T10:15:28.653Z,4.30
2023-03-26T10:18:36.585Z,3.00
2023-03-26T10:21:10.895Z,3.20
2023-03-26T10:24:10.591Z,7.00
2023-03-26T10:27:22.521Z,3.00
2023-03-26T10:30:25.912Z,5.20
2023-03-26T10:33:14.701Z,4.40
2023-03-26T10:36:19.918Z,4.30
2023-03-26T10:39:06.252Z,5.40
2023-03-26T10:42:01.078Z,4.00
2023-03-26T10:44:50.365Z,6.20
2023-03-26T10:47:56.956Z,4.00
2023-03-26T10:50:55.663Z,3.10
2023-03-26T10:53:39.264Z,5.30
2023-03-26T10:56:23.690Z,3.60
2023-03-26T10:58:51.586Z,5.20
2023-03-26T11:01:53.129Z,3.40
2023-03-26T11:04:45.709Z,4.60
2023-03-26T11:07:38.057Z,5.60
2023-03-26T11:10:30.314Z,6.00
2023-03-26T11:13:15.594Z,4.60
2023-03-26T11:16:02.987Z,5.60
2023-03-26T11:18:51.188Z,4.90
2023-03-26T11:21:25.364Z,5.10
2023-03-26T11:24:17.051Z,3.20
2023-03-26T11:27:14.890Z,5.10
2023-03-26T11:30:11.761Z,7.50
2023-03-26T11:32:52.112Z,5.80
2023-03-26T11:35:39.800Z,3.70
2023-03-26T11:38:32.968Z,4.50
2023-03-26T11:41:03.780Z,5.70
2023-03-26T11:43:36.936Z,5.20
2023-03-26T11:46:14.560Z,5.80
2023-03-26T11:48:47.185Z,5.30
2023-03-26T11:51:30.033Z,3.90
2023-03-26T11:53:57.840Z,3.30
2023-03-26T11:57:04.637Z,3.20
2023-03-26T11:59:49.134Z,4.40
2023-03-26T12:02:38.414Z,4.30
2023-03-26T12:05:26.778Z,4.20
2023-03-26T12:08:00.939Z,3.70
2023-03-26T12:10:28.473Z,3.70
2023-03-26T12:12:59.684Z,4.80
2023-03-26T12:17:58.286Z,5.40
2023-03-26T12:20:25.725Z,5.70
2023-03-26T12:22:59.262Z,3.20
2023-03-26T12:25:38.867Z,3.40
2023-03-26T12:28:19.984Z,4.30
2023-03-26T12:31:04.058Z,6.20
2023-03-26T12:33:34.689Z,3.60
2023-03-26T12:36:31.595Z,2.90
2023-03-26T12:40:06.323Z,4.40
2023-03-26T12:43:51.643Z,3.00
2023-03-26T12:44:59.227Z,4.20
2023-03-26T12:48:00.849Z,2.90
2023-03-26T12:50:34.006Z,3.30
2023-03-26T12:53:23.188Z,2.40
2023-03-26T12:55:57.241Z,3.50
2023-03-26T12:59:00.278Z,2.90
2023-03-26T13:02:02.287Z,3.00
2023-03-26T13:05:05.118Z,2.50
2023-03-26T13:07:49.575Z,3.80
2023-03-26T13:10:52.238Z,3.70
2023-03-26T13:13:54.264Z,4.50
2023-03-26T13:16:35.495Z,4.20
2023-03-26T13:21:53.906Z,4.50
2023-03-26T13:24:33.772Z,4.50
2023-03-26T13:27:28.851Z,3.40
2023-03-26T13:30:14.586Z,3.90
2023-03-26T13:32:48.677Z,3.40
2023-03-26T13:35:34.564Z,3.90
2023-03-26T13:38:37.046Z,4.10
2023-03-26T13:42:11.543Z,3.60
2023-03-26T13:45:24.845Z,3.60
2023-03-26T13:47:57.453Z,5.80
2023-03-26T13:50:31.039Z,2.30
2023-03-26T13:53:16.720Z,2.70
2023-03-26T13:55:55.881Z,2.60
2023-03-26T13:58:50.101Z,3.30
2023-03-26T14:01:34.749Z,3.20
2023-03-26T14:04:17.886Z,2.40
2023-03-26T14:07:16.435Z,3.00
2023-03-26T14:10:03.848Z,2.10
2023-03-26T14:12:51.949Z,2.50
2023-03-26T14:15:47.812Z,3.30
2023-03-26T14:18:49.356Z,1.80
2023-03-26T14:24:42.120Z,3.50
2023-03-26T14:27:19.805Z,3.80
2023-03-26T14:30:04.990Z,3.80
2023-03-26T14:33:07.282Z,2.90
2023-03-26T14:35:41.492Z,5.40
2023-03-26T14:38:39.375Z,2.60
2023-03-26T14:42:10.699Z,4.00
2023-03-26T14:45:09.469Z,5.60
2023-03-26T14:48:31.518Z,3.60
2023-03-26T14:51:12.987Z,2.00
2023-03-26T14:56:40.293Z,2.50
2023-03-26T14:59:25.868Z,2.00
2023-03-26T15:02:30.019Z,3.70
2023-03-26T15:05:15.983Z,4.20
2023-03-26T15:08:04.487Z,1.50
2023-03-26T15:11:03.037Z,2.60
2023-03-26T15:13:59.666Z,2.90
2023-03-26T15:16:57.637Z,4.10
2023-03-26T15:19:53.073Z,2.90
2023-03-26T15:23:07.447Z,2.30
2023-03-26T15:25:56.078Z,3.40
2023-03-26T15:29:06.861Z,3.30
2023-03-26T15:32:07.519Z,2.50
2023-03-26T15:34:48.746Z,3.60
2023-03-26T15:37:52.862Z,2.20
2023-03-26T15:40:30.547Z,3.50
2023-03-26T15:43:09.444Z,4.20
2023-03-26T15:45:54.051Z,2.30
2023-03-26T15:48:54.983Z,2.20
2023-03-26T15:52:00.802Z,4.90
2023-03-26T15:55:06.018Z,1.70
2023-03-26T15:58:10.530Z,2.80
2023-03-26T16:00:55.224Z,3.50
2023-03-26T16:03:48.129Z,2.50
2023-03-26T16:06:31.155Z,3.00
2023-03-26T16:09:16.471Z,2.80
2023-03-26T16:11:57.837Z,3.90
2023-03-26T16:17:12.512Z,5.30
2023-03-26T16:19:58.503Z,6.40
2023-03-26T16:22:56.070Z,4.30
2023-03-26T16:25:35.924Z,4.60
2023-03-26T16:28:39.144Z,2.90
2023-03-26T16:31:37.029Z,3.20
2023-03-26T16:34:07.892Z,2.90
2023-03-26T16:36:39.093Z,3.10
2023-03-26T16:39:07.257Z,2.60
2023-03-26T16:41:50.053Z,2.10
2023-03-26T16:44:25.817Z,3.30
2023-03-26T16:47:10.205Z,3.10
2023-03-26T16:50:08.439Z,4.30
2023-03-26T16:52:45.450Z,2.70
2023-03-26T16:55:21.577Z,4.00
2023-03-26T16:58:11.219Z,2.80
2023-03-26T17:01:07.644Z,4.30
2023-03-26T17:04:31.040Z,3.30
2023-03-26T17:07:24.178Z,3.90
2023-03-26T17:10:00.654Z,3.10
2023-03-26T17:12:51.520Z,4.40
2023-03-26T17:15:34.970Z,4.60
2023-03-26T17:18:39.111Z,3.10
2023-03-26T17:21:29.249Z,4.40
2023-03-26T17:24:27.739Z,4.90
2023-03-26T17:27:43.578Z,5.30
2023-03-26T17:30:52.507Z,4.80
2023-03-26T17:33:36.842Z,11.20
2023-03-26T17:36:13.309Z,6.00
2023-03-26T17:38:40.595Z,4.60
2023-03-26T17:41:35.269Z,5.30
2023-03-26T17:44:37.333Z,8.50
2023-03-26T17:47:16.399Z,7.30
2023-03-26T17:49:45.895Z,4.60
2023-03-26T17:52:51.244Z,4.50
2023-03-26T17:55:25.832Z,2.70
2023-03-26T17:58:00.297Z,6.30
2023-03-26T18:00:48.246Z,3.80
2023-03-26T18:03:36.005Z,5.00
2023-03-26T18:06:28.697Z,4.20
2023-03-26T18:09:06.342Z,2.40
2023-03-26T18:12:15.891Z,3.50
2023-03-26T18:15:20.381Z,3.90
2023-03-26T18:17:48.137Z,2.90
2023-03-26T18:20:25.427Z,3.50
2023-03-26T18:22:53.266Z,3.40
2023-03-26T18:25:34.012Z,3.00
2023-03-26T18:28:04.618Z,3.90
2023-03-26T18:30:32.218Z,4.80
2023-03-26T18:33:00.421Z,4.50
2023-03-26T18:35:40.635Z,3.20
2023-03-26T18:38:16.977Z,5.50
2023-03-26T18:40:46.319Z,3.30
2023-03-26T18:43:32.274Z,2.90
2023-03-26T18:46:04.142Z,3.30
2023-03-26T18:48:31.908Z,3.00
2023-03-26T18:51:06.062Z,3.00
2023-03-26T18:53:52.300Z,2.80
2023-03-26T18:56:32.201Z,3.30
2023-03-26T18:59:02.528Z,3.40
2023-03-26T19:01:33.406Z,2.80
2023-03-26T19:04:05.869Z,3.50
2023-03-26T19:06:38.469Z,3.50
2023-03-26T19:09:28.056Z,3.30
2023-03-26T19:11:57.943Z,3.40
2023-03-26T19:14:27.113Z,3.30
2023-03-26T19:17:02.189Z,2.80
2023-03-26T19:19:37.035Z,3.80
2023-03-26T19:22:06.047Z,3.80
2023-03-26T19:24:34.012Z,2.90
2023-03-26T19:27:02.664Z,3.10
2023-03-26T19:29:34.176Z,2.80
2023-03-26T19:32:05.470Z,2.70
2023-03-26T19:34:39.131Z,2.90
2023-03-26T19:37:32.425Z,3.10
2023-03-26T19:40:30.225Z,3.10
2023-03-26T19:42:58.139Z,2.90
2023-03-26T19:45:26.293Z,3.70
2023-03-26T19:48:03.993Z,3.50
2023-03-26T19:50:55.090Z,4.00
2023-03-26T19:53:33.364Z,3.80
2023-03-26T19:56:16.028Z,4.10
2023-03-26T19:58:43.511Z,4.20
2023-03-26T20:01:19.051Z,3.80
2023-03-26T20:03:50.523Z,3.80
2023-03-26T20:06:25.575Z,5.50
2023-03-26T20:08:58.364Z,4.60
2023-03-26T20:11:34.215Z,5.00
2023-03-26T20:14:02.063Z,4.40
2023-03-26T20:16:35.020Z,3.80
2023-03-26T20:19:02.501Z,5.40
2023-03-26T20:21:34.870Z,4.60
2023-03-26T20:24:03.051Z,5.20
2023-03-26T20:26:30.380Z,4.80
2023-03-26T20:28:58.324Z,4.90
2023-03-26T20:31:26.810Z,5.80
2023-03-26T20:33:54.714Z,5.90
2023-03-26T20:36:32.999Z,7.80
2023-03-26T20:39:06.047Z,7.00
2023-03-26T20:44:03.811Z,6.80
2023-03-26T20:46:31.994Z,9.90
2023-03-26T20:48:59.938Z,7.60
2023-03-26T20:51:30.822Z,12.90
2023-03-26T20:53:58.276Z,12.80
2023-03-26T20:56:25.654Z,10.30
2023-03-26T20:59:09.998Z,13.00
2023-03-26T21:01:38.583Z,13.10
2023-03-26T21:04:07.311Z,13.80
2023-03-26T21:06:34.836Z,12.00
2023-03-26T21:09:03.029Z,10.40
2023-03-26T21:11:45.884Z,10.30
2023-03-26T21:14:30.259Z,8.20
2023-03-26T21:16:58.197Z,14.40
2023-03-26T21:19:26.166Z,12.20
2023-03-26T21:22:12.176Z,13.30
2023-03-26T21:24:51.293Z,12.30
2023-03-26T21:27:48.001Z,11.30
2023-03-26T21:30:16.826Z,10.70
2023-03-26T21:32:45.492Z,9.40
2023-03-26T21:35:14.968Z,10.20
2023-03-26T21:37:45.644Z,17.60
2023-03-26T21:40:16.455Z,9.80
2023-03-26T21:42:51.017Z,17.00
2023-03-26T21:45:20.018Z,9.30
2023-03-26T21:47:48.763Z,10.50
2023-03-26T21:50:20.725Z,10.10
2023-03-26T21:52:49.854Z,12.60
2023-03-26T21:55:21.187Z,10.30
2023-03-26T22:01:01.390Z,10.30
2023-03-26T22:04:17.179Z,11.30
2023-03-26T22:06:55.845Z,12.20
2023-03-26T22:09:33.846Z,6.80
2023-03-26T22:12:05.399Z,8.50
2023-03-26T22:14:34.500Z,10.20
2023-03-26T22:17:01.818Z,11.00
2023-03-26T22:19:30.450Z,9.20
2023-03-26T22:21:58.389Z,8.30
2023-03-26T22:24:26.176Z,8.30
2023-03-26T22:26:53.732Z,8.90
2023-03-26T22:29:21.067Z,9.00
2023-03-26T22:31:48.540Z,11.90
2023-03-26T22:34:15.989Z,6.90
2023-03-26T22:36:43.701Z,11.00
2023-03-26T22:39:12.216Z,10.20
2023-03-26T22:41:39.618Z,10.10
2023-03-26T22:44:19.050Z,8.10
2023-03-26T22:46:51.284Z,11.40
2023-03-26T22:49:19.129Z,10.50
2023-03-26T22:51:46.824Z,9.90
2023-03-26T22:54:14.689Z,9.80
2023-03-26T22:56:43.633Z,9.50
2023-03-26T22:59:11.348Z,7.40
2023-03-26T23:01:39.177Z,10.30
2023-03-26T23:04:07.097Z,9.70
2023-03-26T23:06:34.633Z,11.70
2023-03-26T23:09:02.223Z,12.30
2023-03-26T23:11:30.651Z,13.40
2023-03-26T23:13:58.150Z,10.50
2023-03-26T23:16:26.609Z,10.20
2023-03-26T23:18:54.097Z,7.20
2023-03-26T23:21:22.462Z,10.00
2023-03-26T23:23:52.165Z,9.40
2023-03-26T23:26:19.731Z,11.00
2023-03-26T23:28:47.859Z,11.30
2023-03-26T23:31:15.306Z,13.10
2023-03-26T23:33:45.610Z,8.50
2023-03-26T23:36:17.769Z,8.80
2023-03-26T23:38:50.032Z,10.50
2023-03-26T23:41:23.167Z,10.10
2023-03-26T23:43:54.277Z,9.20
2023-03-26T23:46:25.722Z,8.80
2023-03-26T23:48:53.604Z,8.60
2023-03-26T23:51:22.362Z,7.40
2023-03-26T23:53:49.909Z,17.40
2023-03-26T23:56:17.765Z,8.70
2023-03-26T23:58:45.281Z,7.40
